TTX670 RCKH-RKPC
Flight info
| Callsign | TTX670 |
|---|---|
| Flight time | 2h 5m |
| Altitude | 37000 |
| Route | TNN1H TNN W4 APU B591 BERBA B576 SOSDO SOSDO1M |
| Aircraft | A320/M-SDE3FGHIRWY/LB1 |
Departure
| Time | 2026-05-06 07:59 |
|---|---|
| Airport | Kaohsiung International Airport (RCKH) |
Arrival
| Time | 2026-05-06 10:05 |
|---|---|
| Airport | Jeju International Airport (RKPC) |
| Time | Latitude | Longitude | Altitude | Speed | Heading |
|---|---|---|---|---|---|
| 2026-05-06 07:39 | 22.57215 | 120.34133 | 32 ft | 0 kts | 94° |
| 2026-05-06 07:52 | 22.57215 | 120.34132 | 32 ft | 4 kts | 94° |
| 2026-05-06 07:53 | 22.57218 | 120.34088 | 32 ft | 6 kts | 96° |
| 2026-05-06 07:53 | 22.57211 | 120.34051 | 30 ft | 0 kts | 58° |
| 2026-05-06 07:53 | 22.57227 | 120.34063 | 32 ft | 6 kts | 9° |
| 2026-05-06 07:53 | 22.57221 | 120.34062 | 32 ft | 0 kts | 1° |
| 2026-05-06 07:54 | 22.57231 | 120.34062 | 31 ft | 10 kts | 357° |
| 2026-05-06 07:55 | 22.57326 | 120.34055 | 32 ft | 15 kts | 1° |
| 2026-05-06 07:55 | 22.57396 | 120.34082 | 32 ft | 14 kts | 56° |
| 2026-05-06 07:55 | 22.57410 | 120.34204 | 32 ft | 19 kts | 87° |
| 2026-05-06 07:55 | 22.57412 | 120.34354 | 33 ft | 21 kts | 96° |
| 2026-05-06 07:56 | 22.57398 | 120.34520 | 34 ft | 23 kts | 92° |
| 2026-05-06 07:56 | 22.57379 | 120.34691 | 34 ft | 23 kts | 89° |
| 2026-05-06 07:56 | 22.57402 | 120.34830 | 34 ft | 14 kts | 41° |
| 2026-05-06 07:56 | 22.57503 | 120.34880 | 35 ft | 12 kts | 18° |
| 2026-05-06 07:57 | 22.57536 | 120.34916 | 35 ft | 12 kts | 69° |
| 2026-05-06 07:57 | 22.57537 | 120.35112 | 35 ft | 34 kts | 91° |
| 2026-05-06 07:57 | 22.57529 | 120.35371 | 36 ft | 36 kts | 91° |
| 2026-05-06 07:57 | 22.57519 | 120.35642 | 38 ft | 36 kts | 91° |
| 2026-05-06 07:58 | 22.57512 | 120.35916 | 39 ft | 37 kts | 91° |
| 2026-05-06 07:58 | 22.57503 | 120.36192 | 40 ft | 37 kts | 91° |
| 2026-05-06 07:58 | 22.57500 | 120.36468 | 41 ft | 35 kts | 74° |
| 2026-05-06 07:58 | 22.57654 | 120.36473 | 41 ft | 25 kts | 289° |
| 2026-05-06 07:59 | 22.57676 | 120.36161 | 40 ft | 79 kts | 274° |
| 2026-05-06 07:59 | 22.57701 | 120.35298 | 37 ft | 150 kts | 271° |
| 2026-05-06 07:59 | 22.57734 | 120.33963 | 176 ft | 194 kts | 272° |
| 2026-05-06 07:59 | 22.57763 | 120.32430 | 755 ft | 214 kts | 272° |
| 2026-05-06 08:00 | 22.57814 | 120.30776 | 1513 ft | 223 kts | 274° |
| 2026-05-06 08:00 | 22.57874 | 120.29051 | 2233 ft | 239 kts | 274° |
| 2026-05-06 08:00 | 22.57940 | 120.27165 | 2742 ft | 261 kts | 273° |
| 2026-05-06 08:00 | 22.58008 | 120.25156 | 3513 ft | 270 kts | 273° |
| 2026-05-06 08:01 | 22.58074 | 120.23118 | 4525 ft | 271 kts | 272° |
| 2026-05-06 08:01 | 22.58138 | 120.21091 | 5461 ft | 274 kts | 274° |
| 2026-05-06 08:01 | 22.58609 | 120.19096 | 6371 ft | 277 kts | 298° |
| 2026-05-06 08:01 | 22.59864 | 120.17525 | 7229 ft | 280 kts | 324° |
| 2026-05-06 08:02 | 22.61665 | 120.16713 | 8072 ft | 287 kts | 349° |
| 2026-05-06 08:02 | 22.63691 | 120.16705 | 8855 ft | 295 kts | 2° |
| 2026-05-06 08:02 | 22.65755 | 120.16894 | 9699 ft | 299 kts | 3° |
| 2026-05-06 08:02 | 22.67818 | 120.17101 | 10305 ft | 310 kts | 2° |
| 2026-05-06 08:03 | 22.70091 | 120.17309 | 10578 ft | 333 kts | 2° |
| 2026-05-06 08:03 | 22.72471 | 120.17506 | 10909 ft | 350 kts | 2° |
| 2026-05-06 08:03 | 22.74919 | 120.17700 | 11690 ft | 353 kts | 1° |
| 2026-05-06 08:03 | 22.77378 | 120.17890 | 12452 ft | 356 kts | 1° |
| 2026-05-06 08:04 | 22.79852 | 120.18079 | 13218 ft | 358 kts | 1° |
| 2026-05-06 08:04 | 22.82353 | 120.18268 | 13922 ft | 362 kts | 1° |
| 2026-05-06 08:04 | 22.84878 | 120.18458 | 14554 ft | 365 kts | 1° |
| 2026-05-06 08:04 | 22.87401 | 120.18646 | 15154 ft | 369 kts | 1° |
| 2026-05-06 08:05 | 22.89974 | 120.18839 | 15766 ft | 372 kts | 1° |
| 2026-05-06 08:05 | 22.92576 | 120.19035 | 16356 ft | 376 kts | 1° |
| 2026-05-06 08:05 | 22.95194 | 120.19233 | 16921 ft | 379 kts | 1° |
| 2026-05-06 08:05 | 22.97841 | 120.19433 | 17493 ft | 383 kts | 1° |
| 2026-05-06 08:06 | 23.00519 | 120.19636 | 18027 ft | 387 kts | 1° |
| 2026-05-06 08:06 | 23.03213 | 120.19840 | 18529 ft | 390 kts | 1° |
| 2026-05-06 08:06 | 23.05936 | 120.20048 | 19004 ft | 392 kts | 1° |
| 2026-05-06 08:06 | 23.08637 | 120.20253 | 19490 ft | 395 kts | 1° |
| 2026-05-06 08:07 | 23.11385 | 120.20555 | 19957 ft | 400 kts | 8° |
| 2026-05-06 08:07 | 23.14098 | 120.21330 | 20446 ft | 405 kts | 18° |
| 2026-05-06 08:07 | 23.16683 | 120.22603 | 20927 ft | 411 kts | 27° |
| 2026-05-06 08:07 | 23.19159 | 120.24184 | 21415 ft | 414 kts | 28° |
| 2026-05-06 08:08 | 23.21652 | 120.25770 | 21909 ft | 417 kts | 28° |
| 2026-05-06 08:08 | 23.24166 | 120.27364 | 22407 ft | 419 kts | 28° |
| 2026-05-06 08:08 | 23.26693 | 120.28964 | 22894 ft | 422 kts | 28° |
| 2026-05-06 08:08 | 23.29241 | 120.30578 | 23384 ft | 424 kts | 28° |
| 2026-05-06 08:09 | 23.31805 | 120.32204 | 23812 ft | 427 kts | 28° |
| 2026-05-06 08:09 | 23.34385 | 120.33841 | 24235 ft | 429 kts | 28° |
| 2026-05-06 08:09 | 23.36939 | 120.35462 | 24624 ft | 432 kts | 28° |
| 2026-05-06 08:09 | 23.39545 | 120.37118 | 25023 ft | 434 kts | 28° |
| 2026-05-06 08:10 | 23.42161 | 120.38782 | 25426 ft | 436 kts | 28° |
| 2026-05-06 08:10 | 23.44796 | 120.40458 | 25796 ft | 439 kts | 28° |
| 2026-05-06 08:10 | 23.47439 | 120.42140 | 26180 ft | 441 kts | 28° |
| 2026-05-06 08:10 | 23.50099 | 120.43835 | 26551 ft | 444 kts | 28° |
| 2026-05-06 08:11 | 23.52743 | 120.45519 | 26905 ft | 446 kts | 28° |
| 2026-05-06 08:11 | 23.55433 | 120.47233 | 27269 ft | 448 kts | 28° |
| 2026-05-06 08:11 | 23.58143 | 120.48961 | 27619 ft | 451 kts | 28° |
| 2026-05-06 08:11 | 23.60862 | 120.50696 | 27971 ft | 453 kts | 27° |
| 2026-05-06 08:12 | 23.63595 | 120.52440 | 28318 ft | 456 kts | 27° |
| 2026-05-06 08:12 | 23.66343 | 120.54195 | 28634 ft | 458 kts | 27° |
| 2026-05-06 08:12 | 23.69100 | 120.55956 | 28975 ft | 460 kts | 27° |
| 2026-05-06 08:12 | 23.71841 | 120.57708 | 29298 ft | 462 kts | 27° |
| 2026-05-06 08:13 | 23.74634 | 120.59494 | 29614 ft | 465 kts | 27° |
| 2026-05-06 08:13 | 23.77439 | 120.61289 | 29928 ft | 467 kts | 27° |
| 2026-05-06 08:13 | 23.80251 | 120.63089 | 30229 ft | 469 kts | 27° |
| 2026-05-06 08:13 | 23.83075 | 120.64898 | 30548 ft | 470 kts | 27° |
| 2026-05-06 08:14 | 23.85875 | 120.66692 | 30845 ft | 472 kts | 27° |
| 2026-05-06 08:14 | 23.88711 | 120.68511 | 31185 ft | 473 kts | 27° |
| 2026-05-06 08:14 | 23.91549 | 120.70332 | 31592 ft | 472 kts | 27° |
| 2026-05-06 08:14 | 23.94367 | 120.72142 | 32021 ft | 470 kts | 27° |
| 2026-05-06 08:15 | 23.97187 | 120.73954 | 32458 ft | 469 kts | 26° |
| 2026-05-06 08:15 | 23.99994 | 120.75758 | 32859 ft | 468 kts | 26° |
| 2026-05-06 08:15 | 24.02797 | 120.77560 | 33264 ft | 466 kts | 26° |
| 2026-05-06 08:15 | 24.05591 | 120.79356 | 33645 ft | 465 kts | 26° |
| 2026-05-06 08:16 | 24.08380 | 120.81150 | 34023 ft | 464 kts | 26° |
| 2026-05-06 08:16 | 24.11162 | 120.82942 | 34345 ft | 463 kts | 26° |
| 2026-05-06 08:16 | 24.13945 | 120.84734 | 34636 ft | 462 kts | 26° |
| 2026-05-06 08:16 | 24.16683 | 120.86498 | 34937 ft | 461 kts | 25° |
| 2026-05-06 08:17 | 24.19460 | 120.88290 | 35217 ft | 461 kts | 25° |
| 2026-05-06 08:17 | 24.22225 | 120.90075 | 35471 ft | 460 kts | 25° |
| 2026-05-06 08:17 | 24.24987 | 120.91857 | 35759 ft | 460 kts | 25° |
| 2026-05-06 08:17 | 24.27744 | 120.93638 | 36045 ft | 459 kts | 25° |
| 2026-05-06 08:18 | 24.30495 | 120.95416 | 36329 ft | 458 kts | 25° |
| 2026-05-06 08:18 | 24.33202 | 120.97166 | 36598 ft | 457 kts | 25° |
| 2026-05-06 08:18 | 24.35943 | 120.98938 | 36840 ft | 457 kts | 25° |
| 2026-05-06 08:18 | 24.38689 | 121.00715 | 36979 ft | 458 kts | 25° |
| 2026-05-06 08:19 | 24.44165 | 121.04260 | 37002 ft | 458 kts | 25° |
| 2026-05-06 08:19 | 24.49631 | 121.07804 | 37006 ft | 456 kts | 25° |
| 2026-05-06 08:20 | 24.55100 | 121.11353 | 37003 ft | 455 kts | 25° |
| 2026-05-06 08:20 | 24.60519 | 121.14873 | 37005 ft | 457 kts | 25° |
| 2026-05-06 08:21 | 24.65986 | 121.18428 | 36993 ft | 454 kts | 25° |
| 2026-05-06 08:21 | 24.71431 | 121.21971 | 36994 ft | 454 kts | 25° |
| 2026-05-06 08:22 | 24.76848 | 121.25500 | 36981 ft | 454 kts | 25° |
| 2026-05-06 08:22 | 24.82284 | 121.29045 | 36977 ft | 453 kts | 25° |
| 2026-05-06 08:23 | 24.87728 | 121.32598 | 36985 ft | 455 kts | 25° |
| 2026-05-06 08:23 | 24.93165 | 121.36152 | 36977 ft | 452 kts | 25° |
| 2026-05-06 08:24 | 24.98543 | 121.39670 | 36978 ft | 452 kts | 25° |
| 2026-05-06 08:24 | 25.03943 | 121.43206 | 36974 ft | 452 kts | 25° |
| 2026-05-06 08:25 | 25.09352 | 121.46751 | 36972 ft | 451 kts | 25° |
| 2026-05-06 08:25 | 25.14759 | 121.50299 | 36978 ft | 451 kts | 25° |
| 2026-05-06 08:26 | 25.20023 | 121.54007 | 36977 ft | 454 kts | 29° |
| 2026-05-06 08:26 | 25.25226 | 121.57983 | 36970 ft | 453 kts | 28° |
| 2026-05-06 08:27 | 25.29540 | 121.61268 | 36969 ft | 453 kts | 28° |
| 2026-05-06 08:27 | 25.34728 | 121.65227 | 36965 ft | 452 kts | 28° |
| 2026-05-06 08:28 | 25.39896 | 121.69179 | 36967 ft | 452 kts | 28° |
| 2026-05-06 08:28 | 25.45042 | 121.73121 | 36963 ft | 451 kts | 28° |
| 2026-05-06 08:29 | 25.50208 | 121.77080 | 36967 ft | 451 kts | 28° |
| 2026-05-06 08:29 | 25.55336 | 121.81015 | 36969 ft | 450 kts | 28° |
| 2026-05-06 08:30 | 25.60485 | 121.84970 | 36970 ft | 450 kts | 28° |
| 2026-05-06 08:30 | 25.65629 | 121.88926 | 36971 ft | 449 kts | 28° |
| 2026-05-06 08:31 | 25.70773 | 121.92886 | 36972 ft | 449 kts | 28° |
| 2026-05-06 08:31 | 25.75868 | 121.96813 | 36971 ft | 448 kts | 28° |
| 2026-05-06 08:32 | 25.80995 | 122.00768 | 36973 ft | 448 kts | 28° |
| 2026-05-06 08:32 | 25.86112 | 122.04720 | 36975 ft | 448 kts | 28° |
| 2026-05-06 08:33 | 25.91237 | 122.08681 | 36975 ft | 447 kts | 28° |
| 2026-05-06 08:33 | 25.96319 | 122.12615 | 36973 ft | 447 kts | 28° |
| 2026-05-06 08:34 | 26.03973 | 122.18547 | 36983 ft | 446 kts | 28° |
| 2026-05-06 08:35 | 26.09037 | 122.22477 | 36975 ft | 446 kts | 28° |
| 2026-05-06 08:35 | 26.14135 | 122.26438 | 36978 ft | 445 kts | 28° |
| 2026-05-06 08:36 | 26.19216 | 122.30389 | 36979 ft | 445 kts | 28° |
| 2026-05-06 08:36 | 26.24258 | 122.34315 | 36979 ft | 444 kts | 28° |
| 2026-05-06 08:37 | 26.29320 | 122.38261 | 36981 ft | 443 kts | 28° |
| 2026-05-06 08:37 | 26.34383 | 122.42211 | 36977 ft | 443 kts | 28° |
| 2026-05-06 08:38 | 26.39406 | 122.46135 | 36980 ft | 442 kts | 28° |
| 2026-05-06 08:38 | 26.44458 | 122.50085 | 36982 ft | 442 kts | 28° |
| 2026-05-06 08:39 | 26.49493 | 122.54027 | 36982 ft | 441 kts | 28° |
| 2026-05-06 08:39 | 26.54486 | 122.57940 | 36978 ft | 441 kts | 28° |
| 2026-05-06 08:40 | 26.59512 | 122.61883 | 36975 ft | 440 kts | 28° |
| 2026-05-06 08:40 | 26.64528 | 122.65822 | 36977 ft | 440 kts | 28° |
| 2026-05-06 08:41 | 26.69509 | 122.69738 | 36976 ft | 440 kts | 28° |
| 2026-05-06 08:41 | 26.74520 | 122.73682 | 36984 ft | 439 kts | 28° |
| 2026-05-06 08:42 | 26.79526 | 122.77627 | 36980 ft | 439 kts | 28° |
| 2026-05-06 08:42 | 26.84490 | 122.81542 | 36974 ft | 439 kts | 28° |
| 2026-05-06 08:43 | 26.89484 | 122.85486 | 36978 ft | 439 kts | 28° |
| 2026-05-06 08:43 | 26.94471 | 122.89429 | 36980 ft | 439 kts | 29° |
| 2026-05-06 08:44 | 26.99470 | 122.93385 | 36983 ft | 439 kts | 29° |
| 2026-05-06 08:44 | 27.04463 | 122.97340 | 36987 ft | 439 kts | 29° |
| 2026-05-06 08:45 | 27.09593 | 123.00971 | 36983 ft | 432 kts | 20° |
| 2026-05-06 08:45 | 27.14958 | 123.03901 | 36982 ft | 431 kts | 20° |
| 2026-05-06 08:46 | 27.20354 | 123.06866 | 36984 ft | 431 kts | 20° |
| 2026-05-06 08:46 | 27.25753 | 123.09831 | 36985 ft | 431 kts | 20° |
| 2026-05-06 08:47 | 27.31158 | 123.12798 | 36993 ft | 432 kts | 20° |
| 2026-05-06 08:47 | 27.36556 | 123.15764 | 36994 ft | 432 kts | 20° |
| 2026-05-06 08:48 | 27.41963 | 123.18738 | 36994 ft | 432 kts | 20° |
| 2026-05-06 08:48 | 27.47334 | 123.21697 | 36995 ft | 432 kts | 20° |
| 2026-05-06 08:49 | 27.52743 | 123.24680 | 36997 ft | 432 kts | 20° |
| 2026-05-06 08:49 | 27.58153 | 123.27668 | 36994 ft | 432 kts | 20° |
| 2026-05-06 08:50 | 27.63515 | 123.30632 | 36996 ft | 432 kts | 20° |
| 2026-05-06 08:50 | 27.68923 | 123.33625 | 36997 ft | 432 kts | 20° |
| 2026-05-06 08:51 | 27.74323 | 123.36617 | 37001 ft | 432 kts | 20° |
| 2026-05-06 08:51 | 27.79690 | 123.39593 | 37001 ft | 432 kts | 20° |
| 2026-05-06 08:52 | 27.85093 | 123.42593 | 37000 ft | 432 kts | 21° |
| 2026-05-06 08:52 | 27.90491 | 123.45594 | 37002 ft | 432 kts | 21° |
| 2026-05-06 08:53 | 27.95863 | 123.48583 | 36997 ft | 432 kts | 21° |
| 2026-05-06 08:53 | 28.01253 | 123.51586 | 37003 ft | 432 kts | 21° |
| 2026-05-06 08:54 | 28.06654 | 123.54599 | 37005 ft | 432 kts | 21° |
| 2026-05-06 08:54 | 28.12009 | 123.57588 | 37002 ft | 432 kts | 21° |
| 2026-05-06 08:55 | 28.17406 | 123.60606 | 37001 ft | 432 kts | 21° |
| 2026-05-06 08:55 | 28.22794 | 123.63621 | 37004 ft | 432 kts | 21° |
| 2026-05-06 08:56 | 28.28185 | 123.66641 | 37004 ft | 432 kts | 21° |
| 2026-05-06 08:56 | 28.33544 | 123.69648 | 37006 ft | 432 kts | 21° |
| 2026-05-06 08:57 | 28.38941 | 123.72678 | 37006 ft | 432 kts | 21° |
| 2026-05-06 08:57 | 28.44327 | 123.75706 | 37009 ft | 432 kts | 21° |
| 2026-05-06 08:58 | 28.49686 | 123.78722 | 37011 ft | 432 kts | 21° |
| 2026-05-06 08:58 | 28.55076 | 123.81759 | 37012 ft | 432 kts | 21° |
| 2026-05-06 08:59 | 28.60471 | 123.84803 | 37011 ft | 432 kts | 21° |
| 2026-05-06 08:59 | 28.65869 | 123.87851 | 37012 ft | 432 kts | 21° |
| 2026-05-06 09:00 | 28.71222 | 123.90878 | 37012 ft | 432 kts | 21° |
| 2026-05-06 09:00 | 28.76615 | 123.93931 | 37016 ft | 432 kts | 21° |
| 2026-05-06 09:01 | 28.82005 | 123.96985 | 37014 ft | 432 kts | 22° |
| 2026-05-06 09:01 | 28.87394 | 124.00043 | 37011 ft | 432 kts | 22° |
| 2026-05-06 09:02 | 28.92752 | 124.03086 | 37012 ft | 432 kts | 22° |
| 2026-05-06 09:02 | 28.98144 | 124.06153 | 37012 ft | 432 kts | 22° |
| 2026-05-06 09:03 | 29.03533 | 124.09221 | 37016 ft | 432 kts | 22° |
| 2026-05-06 09:03 | 29.08915 | 124.12290 | 37013 ft | 432 kts | 22° |
| 2026-05-06 09:04 | 29.14275 | 124.15348 | 37007 ft | 432 kts | 22° |
| 2026-05-06 09:04 | 29.19665 | 124.18428 | 37017 ft | 432 kts | 22° |
| 2026-05-06 09:05 | 29.25055 | 124.21511 | 37016 ft | 432 kts | 22° |
| 2026-05-06 09:05 | 29.30417 | 124.24583 | 37019 ft | 433 kts | 22° |
| 2026-05-06 09:06 | 29.35810 | 124.27675 | 37013 ft | 433 kts | 22° |
| 2026-05-06 09:06 | 29.41201 | 124.30770 | 37021 ft | 433 kts | 22° |
| 2026-05-06 09:07 | 29.46593 | 124.33869 | 37018 ft | 433 kts | 22° |
| 2026-05-06 09:07 | 29.51954 | 124.36955 | 37013 ft | 433 kts | 22° |
| 2026-05-06 09:08 | 29.57355 | 124.40067 | 37018 ft | 434 kts | 22° |
| 2026-05-06 09:08 | 29.62755 | 124.43181 | 37026 ft | 434 kts | 22° |
| 2026-05-06 09:09 | 29.68153 | 124.46299 | 37022 ft | 434 kts | 22° |
| 2026-05-06 09:09 | 29.73515 | 124.49400 | 37024 ft | 434 kts | 22° |
| 2026-05-06 09:10 | 29.78927 | 124.52533 | 37027 ft | 434 kts | 23° |
| 2026-05-06 09:10 | 29.84295 | 124.55645 | 37026 ft | 434 kts | 23° |
| 2026-05-06 09:11 | 29.89693 | 124.58777 | 37028 ft | 434 kts | 23° |
| 2026-05-06 09:11 | 29.95095 | 124.61916 | 37027 ft | 434 kts | 23° |
| 2026-05-06 09:12 | 30.00459 | 124.65037 | 37029 ft | 434 kts | 23° |
| 2026-05-06 09:12 | 30.05858 | 124.68182 | 37027 ft | 434 kts | 23° |
| 2026-05-06 09:13 | 30.11248 | 124.71325 | 37025 ft | 434 kts | 23° |
| 2026-05-06 09:13 | 30.16638 | 124.74473 | 37026 ft | 434 kts | 23° |
| 2026-05-06 09:14 | 30.22025 | 124.77622 | 37026 ft | 434 kts | 23° |
| 2026-05-06 09:14 | 30.27415 | 124.80777 | 37028 ft | 434 kts | 23° |
| 2026-05-06 09:15 | 30.32765 | 124.83913 | 37033 ft | 434 kts | 23° |
| 2026-05-06 09:15 | 30.38174 | 124.87087 | 37030 ft | 434 kts | 23° |
| 2026-05-06 09:16 | 30.42650 | 124.89716 | 37028 ft | 434 kts | 23° |
| 2026-05-06 09:16 | 30.48918 | 124.93403 | 37031 ft | 434 kts | 23° |
| 2026-05-06 09:17 | 30.53397 | 124.96042 | 37031 ft | 434 kts | 23° |
| 2026-05-06 09:17 | 30.58780 | 124.99216 | 37032 ft | 434 kts | 23° |
| 2026-05-06 09:18 | 30.64181 | 125.02404 | 37034 ft | 434 kts | 23° |
| 2026-05-06 09:18 | 30.69537 | 125.05570 | 37035 ft | 434 kts | 23° |
| 2026-05-06 09:19 | 30.74938 | 125.08767 | 37036 ft | 434 kts | 23° |
| 2026-05-06 09:19 | 30.80330 | 125.11962 | 37035 ft | 435 kts | 23° |
| 2026-05-06 09:20 | 30.85688 | 125.15141 | 37039 ft | 435 kts | 23° |
| 2026-05-06 09:20 | 30.91084 | 125.18347 | 37038 ft | 435 kts | 23° |
| 2026-05-06 09:21 | 30.96476 | 125.21554 | 37038 ft | 435 kts | 23° |
| 2026-05-06 09:21 | 31.01865 | 125.24764 | 37038 ft | 435 kts | 23° |
| 2026-05-06 09:21 | 31.04568 | 125.26376 | 36880 ft | 435 kts | 23° |
| 2026-05-06 09:22 | 31.07268 | 125.27986 | 36622 ft | 435 kts | 24° |
| 2026-05-06 09:22 | 31.09925 | 125.29573 | 36375 ft | 434 kts | 24° |
| 2026-05-06 09:22 | 31.12628 | 125.31187 | 36127 ft | 435 kts | 24° |
| 2026-05-06 09:22 | 31.15324 | 125.32798 | 35881 ft | 436 kts | 24° |
| 2026-05-06 09:23 | 31.18033 | 125.34418 | 35640 ft | 436 kts | 24° |
| 2026-05-06 09:23 | 31.20734 | 125.36035 | 35402 ft | 436 kts | 24° |
| 2026-05-06 09:23 | 31.23440 | 125.37655 | 35163 ft | 437 kts | 24° |
| 2026-05-06 09:23 | 31.26114 | 125.39258 | 34929 ft | 437 kts | 24° |
| 2026-05-06 09:24 | 31.28825 | 125.40884 | 34688 ft | 437 kts | 24° |
| 2026-05-06 09:24 | 31.31538 | 125.42512 | 34463 ft | 438 kts | 24° |
| 2026-05-06 09:24 | 31.34261 | 125.44147 | 34233 ft | 438 kts | 24° |
| 2026-05-06 09:24 | 31.36975 | 125.45778 | 34002 ft | 438 kts | 24° |
| 2026-05-06 09:25 | 31.39692 | 125.47411 | 33734 ft | 439 kts | 24° |
| 2026-05-06 09:25 | 31.42377 | 125.49027 | 33478 ft | 440 kts | 24° |
| 2026-05-06 09:25 | 31.45107 | 125.50670 | 33221 ft | 441 kts | 24° |
| 2026-05-06 09:25 | 31.47840 | 125.52316 | 33086 ft | 442 kts | 24° |
| 2026-05-06 09:26 | 31.50589 | 125.53973 | 33045 ft | 443 kts | 24° |
| 2026-05-06 09:26 | 31.56076 | 125.57285 | 33044 ft | 443 kts | 24° |
| 2026-05-06 09:27 | 31.61530 | 125.60580 | 33045 ft | 443 kts | 24° |
| 2026-05-06 09:27 | 31.67018 | 125.63901 | 33046 ft | 443 kts | 24° |
| 2026-05-06 09:28 | 31.72453 | 125.67194 | 33049 ft | 442 kts | 24° |
| 2026-05-06 09:28 | 31.77925 | 125.70514 | 33046 ft | 442 kts | 24° |
| 2026-05-06 09:29 | 31.83397 | 125.73838 | 33045 ft | 442 kts | 24° |
| 2026-05-06 09:29 | 31.88875 | 125.77170 | 33050 ft | 442 kts | 24° |
| 2026-05-06 09:30 | 31.94344 | 125.80501 | 33047 ft | 442 kts | 24° |
| 2026-05-06 09:30 | 31.99785 | 125.83819 | 33048 ft | 442 kts | 24° |
| 2026-05-06 09:31 | 32.05257 | 125.87162 | 33047 ft | 442 kts | 24° |
| 2026-05-06 09:31 | 32.10727 | 125.90507 | 33046 ft | 442 kts | 24° |
| 2026-05-06 09:32 | 32.16199 | 125.93858 | 33047 ft | 442 kts | 24° |
| 2026-05-06 09:32 | 32.21666 | 125.97211 | 33049 ft | 442 kts | 24° |
| 2026-05-06 09:33 | 32.27099 | 126.00546 | 33053 ft | 442 kts | 24° |
| 2026-05-06 09:33 | 32.32564 | 126.03907 | 33055 ft | 442 kts | 24° |
| 2026-05-06 09:34 | 32.38028 | 126.07271 | 33054 ft | 442 kts | 24° |
| 2026-05-06 09:34 | 32.43492 | 126.10640 | 33053 ft | 442 kts | 24° |
| 2026-05-06 09:35 | 32.48926 | 126.13996 | 33053 ft | 442 kts | 24° |
| 2026-05-06 09:35 | 32.54395 | 126.17377 | 33053 ft | 442 kts | 24° |
| 2026-05-06 09:36 | 32.59851 | 126.20755 | 33053 ft | 442 kts | 24° |
| 2026-05-06 09:36 | 32.65287 | 126.24125 | 33050 ft | 442 kts | 24° |
| 2026-05-06 09:37 | 32.70753 | 126.27519 | 33051 ft | 442 kts | 24° |
| 2026-05-06 09:37 | 32.76209 | 126.30910 | 33051 ft | 442 kts | 24° |
| 2026-05-06 09:37 | 32.78934 | 126.32606 | 32861 ft | 440 kts | 24° |
| 2026-05-06 09:38 | 32.81618 | 126.34276 | 32168 ft | 443 kts | 24° |
| 2026-05-06 09:38 | 32.84371 | 126.35988 | 31125 ft | 451 kts | 24° |
| 2026-05-06 09:38 | 32.87189 | 126.37740 | 29839 ft | 462 kts | 24° |
| 2026-05-06 09:38 | 32.90069 | 126.39534 | 28660 ft | 468 kts | 24° |
| 2026-05-06 09:39 | 32.92943 | 126.41330 | 27921 ft | 464 kts | 24° |
| 2026-05-06 09:39 | 32.95787 | 126.43111 | 27213 ft | 459 kts | 24° |
| 2026-05-06 09:39 | 32.98609 | 126.44876 | 26486 ft | 455 kts | 25° |
| 2026-05-06 09:39 | 33.01343 | 126.46770 | 25778 ft | 454 kts | 30° |
| 2026-05-06 09:40 | 33.03949 | 126.48871 | 25081 ft | 451 kts | 31° |
| 2026-05-06 09:40 | 33.06522 | 126.50923 | 24416 ft | 448 kts | 30° |
| 2026-05-06 09:40 | 33.11681 | 126.55015 | 23038 ft | 441 kts | 31° |
| 2026-05-06 09:41 | 33.14222 | 126.57036 | 22365 ft | 436 kts | 31° |
| 2026-05-06 09:41 | 33.16733 | 126.59038 | 21689 ft | 432 kts | 31° |
| 2026-05-06 09:41 | 33.19219 | 126.61024 | 21020 ft | 428 kts | 31° |
| 2026-05-06 09:41 | 33.21681 | 126.62993 | 20374 ft | 424 kts | 31° |
| 2026-05-06 09:42 | 33.24212 | 126.64738 | 19719 ft | 416 kts | 20° |
| 2026-05-06 09:42 | 33.26930 | 126.65676 | 19085 ft | 409 kts | 6° |
| 2026-05-06 09:42 | 33.29739 | 126.65743 | 18439 ft | 402 kts | 351° |
| 2026-05-06 09:42 | 33.32432 | 126.64951 | 17712 ft | 396 kts | 340° |
| 2026-05-06 09:43 | 33.35039 | 126.63880 | 17016 ft | 393 kts | 340° |
| 2026-05-06 09:43 | 33.37691 | 126.63106 | 16329 ft | 392 kts | 350° |
| 2026-05-06 09:43 | 33.40413 | 126.62935 | 15643 ft | 392 kts | 0° |
| 2026-05-06 09:43 | 33.43124 | 126.63334 | 15004 ft | 391 kts | 8° |
| 2026-05-06 09:44 | 33.45771 | 126.63869 | 14393 ft | 388 kts | 8° |
| 2026-05-06 09:44 | 33.48433 | 126.64401 | 13773 ft | 385 kts | 8° |
| 2026-05-06 09:44 | 33.51071 | 126.64928 | 13122 ft | 382 kts | 8° |
| 2026-05-06 09:44 | 33.53685 | 126.65473 | 12498 ft | 379 kts | 11° |
| 2026-05-06 09:45 | 33.56214 | 126.66348 | 11889 ft | 377 kts | 19° |
| 2026-05-06 09:45 | 33.58605 | 126.67624 | 11291 ft | 375 kts | 26° |
| 2026-05-06 09:45 | 33.60892 | 126.69033 | 10822 ft | 369 kts | 26° |
| 2026-05-06 09:45 | 33.63132 | 126.70397 | 10681 ft | 353 kts | 26° |
| 2026-05-06 09:46 | 33.65286 | 126.71706 | 10545 ft | 339 kts | 26° |
| 2026-05-06 09:46 | 33.67346 | 126.72957 | 10419 ft | 325 kts | 26° |
| 2026-05-06 09:46 | 33.69323 | 126.74159 | 10306 ft | 312 kts | 26° |
| 2026-05-06 09:46 | 33.71209 | 126.75307 | 10147 ft | 301 kts | 26° |
| 2026-05-06 09:47 | 33.73068 | 126.76440 | 10076 ft | 300 kts | 26° |
| 2026-05-06 09:47 | 33.74933 | 126.77576 | 10061 ft | 300 kts | 26° |
| 2026-05-06 09:47 | 33.76800 | 126.78716 | 10059 ft | 301 kts | 26° |
| 2026-05-06 09:47 | 33.78674 | 126.79846 | 10054 ft | 301 kts | 21° |
| 2026-05-06 09:48 | 33.80574 | 126.80926 | 10064 ft | 302 kts | 25° |
| 2026-05-06 09:48 | 33.82439 | 126.82077 | 10061 ft | 301 kts | 26° |
| 2026-05-06 09:48 | 33.84297 | 126.83243 | 10062 ft | 301 kts | 26° |
| 2026-05-06 09:48 | 33.86155 | 126.84406 | 10065 ft | 301 kts | 27° |
| 2026-05-06 09:49 | 33.87790 | 126.85962 | 10064 ft | 303 kts | 51° |
| 2026-05-06 09:49 | 33.88768 | 126.88158 | 9888 ft | 303 kts | 73° |
| 2026-05-06 09:49 | 33.89324 | 126.90598 | 9714 ft | 301 kts | 76° |
| 2026-05-06 09:49 | 33.89819 | 126.93037 | 9546 ft | 299 kts | 77° |
| 2026-05-06 09:50 | 33.90313 | 126.95471 | 9380 ft | 299 kts | 76° |
| 2026-05-06 09:50 | 33.90806 | 126.97902 | 9197 ft | 298 kts | 81° |
| 2026-05-06 09:50 | 33.90742 | 127.00359 | 9080 ft | 294 kts | 107° |
| 2026-05-06 09:50 | 33.89810 | 127.02515 | 9061 ft | 291 kts | 133° |
| 2026-05-06 09:51 | 33.88397 | 127.04268 | 9061 ft | 292 kts | 137° |
| 2026-05-06 09:51 | 33.86937 | 127.05966 | 9062 ft | 292 kts | 137° |
| 2026-05-06 09:51 | 33.85426 | 127.07584 | 9063 ft | 291 kts | 144° |
| 2026-05-06 09:51 | 33.83727 | 127.08886 | 9062 ft | 290 kts | 152° |
| 2026-05-06 09:52 | 33.81975 | 127.10095 | 9056 ft | 290 kts | 151° |
| 2026-05-06 09:52 | 33.80257 | 127.11303 | 9060 ft | 290 kts | 151° |
| 2026-05-06 09:52 | 33.78494 | 127.12485 | 9060 ft | 289 kts | 157° |
| 2026-05-06 09:52 | 33.76607 | 127.13312 | 9060 ft | 288 kts | 166° |
| 2026-05-06 09:53 | 33.74679 | 127.13967 | 9061 ft | 288 kts | 166° |
| 2026-05-06 09:53 | 33.72774 | 127.14625 | 9060 ft | 288 kts | 165° |
| 2026-05-06 09:53 | 33.70844 | 127.15268 | 9057 ft | 287 kts | 169° |
| 2026-05-06 09:53 | 33.68864 | 127.15575 | 9060 ft | 286 kts | 179° |
| 2026-05-06 09:54 | 33.66875 | 127.15637 | 9061 ft | 286 kts | 180° |
| 2026-05-06 09:54 | 33.64885 | 127.15709 | 9060 ft | 286 kts | 180° |
| 2026-05-06 09:54 | 33.62895 | 127.15778 | 9061 ft | 286 kts | 181° |
| 2026-05-06 09:54 | 33.60922 | 127.15570 | 9063 ft | 285 kts | 192° |
| 2026-05-06 09:55 | 33.59007 | 127.15060 | 9061 ft | 285 kts | 194° |
| 2026-05-06 09:55 | 33.57162 | 127.14253 | 9065 ft | 283 kts | 214° |
| 2026-05-06 09:55 | 33.55785 | 127.12591 | 9062 ft | 283 kts | 239° |
| 2026-05-06 09:55 | 33.55158 | 127.10365 | 8952 ft | 285 kts | 264° |
| 2026-05-06 09:56 | 33.55394 | 127.08007 | 8634 ft | 287 kts | 287° |
| 2026-05-06 09:56 | 33.56066 | 127.05755 | 8266 ft | 287 kts | 289° |
| 2026-05-06 09:56 | 33.56773 | 127.03525 | 7873 ft | 285 kts | 290° |
| 2026-05-06 09:56 | 33.57472 | 127.01301 | 7463 ft | 284 kts | 289° |
| 2026-05-06 09:57 | 33.58144 | 126.99111 | 7092 ft | 282 kts | 289° |
| 2026-05-06 09:57 | 33.58810 | 126.96900 | 6696 ft | 281 kts | 288° |
| 2026-05-06 09:57 | 33.59465 | 126.94702 | 6341 ft | 278 kts | 288° |
| 2026-05-06 09:57 | 33.60107 | 126.92531 | 6001 ft | 274 kts | 288° |
| 2026-05-06 09:58 | 33.60743 | 126.90383 | 5670 ft | 272 kts | 288° |
| 2026-05-06 09:58 | 33.61378 | 126.88233 | 5346 ft | 274 kts | 288° |
| 2026-05-06 09:58 | 33.62016 | 126.86071 | 5013 ft | 272 kts | 288° |
| 2026-05-06 09:58 | 33.62637 | 126.83966 | 4684 ft | 271 kts | 288° |
| 2026-05-06 09:59 | 33.63260 | 126.81819 | 4265 ft | 272 kts | 288° |
| 2026-05-06 09:59 | 33.63883 | 126.79707 | 4071 ft | 264 kts | 289° |
| 2026-05-06 09:59 | 33.64417 | 126.77623 | 3976 ft | 255 kts | 277° |
| 2026-05-06 09:59 | 33.64304 | 126.75587 | 3969 ft | 238 kts | 253° |
| 2026-05-06 10:00 | 33.63710 | 126.73804 | 3966 ft | 223 kts | 242° |
| 2026-05-06 10:00 | 33.62959 | 126.72217 | 3971 ft | 221 kts | 237° |
| 2026-05-06 10:00 | 33.62148 | 126.70641 | 3957 ft | 221 kts | 238° |
| 2026-05-06 10:00 | 33.61347 | 126.69068 | 3783 ft | 219 kts | 238° |
| 2026-05-06 10:01 | 33.60559 | 126.67524 | 3475 ft | 218 kts | 238° |
| 2026-05-06 10:01 | 33.59766 | 126.65972 | 3186 ft | 217 kts | 237° |
| 2026-05-06 10:01 | 33.58981 | 126.64436 | 2891 ft | 216 kts | 237° |
| 2026-05-06 10:01 | 33.58199 | 126.62904 | 2596 ft | 215 kts | 237° |
| 2026-05-06 10:02 | 33.57421 | 126.61381 | 2317 ft | 213 kts | 237° |
| 2026-05-06 10:02 | 33.56653 | 126.59877 | 2023 ft | 206 kts | 237° |
| 2026-05-06 10:02 | 33.55939 | 126.58481 | 1788 ft | 186 kts | 237° |
| 2026-05-06 10:02 | 33.55291 | 126.57213 | 1521 ft | 169 kts | 237° |
| 2026-05-06 10:03 | 33.54704 | 126.56066 | 1287 ft | 154 kts | 238° |
| 2026-05-06 10:03 | 33.54168 | 126.55019 | 1091 ft | 139 kts | 239° |
| 2026-05-06 10:03 | 33.53692 | 126.54088 | 913 ft | 127 kts | 240° |
| 2026-05-06 10:03 | 33.53220 | 126.53163 | 750 ft | 131 kts | 240° |
| 2026-05-06 10:04 | 33.52745 | 126.52235 | 581 ft | 129 kts | 241° |
| 2026-05-06 10:04 | 33.52273 | 126.51313 | 407 ft | 130 kts | 241° |
| 2026-05-06 10:04 | 33.51817 | 126.50422 | 242 ft | 120 kts | 241° |
| 2026-05-06 10:04 | 33.51535 | 126.49871 | 139 ft | 115 kts | 241° |
| 2026-05-06 10:05 | 33.51162 | 126.49124 | 91 ft | 76 kts | 241° |
| 2026-05-06 10:05 | 33.51015 | 126.48930 | 89 ft | 9 kts | 158° |
| 2026-05-06 10:05 | 33.50882 | 126.49018 | 91 ft | 20 kts | 148° |
| 2026-05-06 10:05 | 33.50748 | 126.49084 | 91 ft | 21 kts | 162° |
| 2026-05-06 10:06 | 33.50682 | 126.49120 | 92 ft | 0 kts | 148° |